EST,Max TemperatureF,Mean TemperatureF,Min TemperatureF,Max Dew PointF,MeanDew PointF,Min DewpointF,Max Humidity, Mean Humidity, Min Humidity, Max Sea Level PressureIn, Mean Sea Level PressureIn, Min Sea Level PressureIn, Max VisibilityMiles, Mean VisibilityMiles, Min VisibilityMiles, Max Wind SpeedMPH, Mean Wind SpeedMPH, Max Gust SpeedMPH,PrecipitationIn, CloudCover, Events, WindDirDegrees
2013-2-1,54,42,30,27,20,2,72,43,14,30.37,30.23,30.12,10,10,10,23,9,30,0.00,0,,270
2013-2-2,58,43,27,29,20,14,85,46,20,30.39,30.26,30.09,10,10,10,12,4,15,0.00,1,,119
2013-2-3,62,51,40,36,29,23,76,48,27,30.09,30.02,29.92,10,10,10,25,11,39,T,1,,280
2013-2-4,51,41,30,34,29,24,92,62,35,30.15,30.09,30.04,10,10,10,7,1,9,0.00,0,,146
2013-2-5,70,53,35,45,39,33,92,67,35,30.06,30.01,29.95,10,10,5,20,5,25,0.00,2,,239
2013-2-6,72,58,43,47,41,34,93,63,26,30.19,30.12,30.03,10,9,3,8,2,13,0.00,0,,304
2013-2-7,53,49,44,48,47,39,93,91,77,30.19,30.02,29.82,10,4,2,21,9,28,2.27,6,Rain,40
2013-2-8,62,53,44,48,45,42,93,81,60,30.09,29.93,29.82,10,10,8,16,8,23,T,5,Rain,312
2013-2-9,64,49,34,37,30,21,93,60,20,30.34,30.25,30.10,10,10,7,9,3,14,0.00,0,,2
2013-2-10,66,50,33,51,42,31,96,72,47,30.41,30.31,30.17,10,10,3,14,5,20,0.05,2,Rain,109
2013-2-11,68,60,52,63,58,51,100,93,81,30.24,30.12,30.06,10,6,1,20,8,24,1.27,8,Rain,206
2013-2-12,66,59,51,55,51,42,93,83,42,30.13,30.01,29.89,10,8,2,10,4,16,1.11,7,Rain,256
2013-2-13,63,56,49,56,49,41,100,89,60,29.91,29.80,29.72,10,6,1,18,9,32,0.13,6,Rain,263
2013-2-14,54,47,40,41,39,35,89,74,50,30.08,30.02,29.89,10,10,6,9,2,13,0.00,0,,305
2013-2-15,64,49,34,42,36,32,100,79,32,30.12,30.05,29.96,10,6,0,9,1,13,0.00,0,Fog,213
2013-2-16,48,41,33,39,35,25,92,80,60,30.06,29.93,29.86,10,10,6,20,7,28,0.09,5,Rain,328
2013-2-17,47,38,29,22,14,8,69,43,21,30.31,30.20,30.08,10,10,10,18,8,25,0.00,0,,287
2013-2-18,57,41,25,29,22,16,85,52,24,30.42,30.35,30.28,10,10,10,12,3,15,0.00,0,,178
2013-2-19,54,44,34,52,44,28,100,89,70,30.26,30.06,29.99,10,6,0,16,5,21,0.22,5,Fog-Rain,235
2013-2-20,59,46,33,35,28,19,83,52,24,30.17,30.10,30.06,10,10,10,12,4,16,0.00,0,,276
2013-2-21,64,49,34,39,31,22,92,55,28,30.22,30.14,30.09,10,10,10,12,4,15,0.00,0,,85
2013-2-22,49,45,40,41,39,34,100,86,61,30.22,30.16,30.10,10,6,1,14,8,22,0.39,8,Rain,50
2013-2-23,47,44,40,46,42,37,100,95,92,30.09,29.93,29.86,10,4,0,12,4,16,0.87,8,Fog-Rain,27
2013-2-24,70,57,44,47,44,39,100,76,33,30.01,29.95,29.88,10,9,2,10,5,15,0.01,4,Rain,300
2013-2-25,49,45,41,44,36,31,92,73,50,30.10,30.04,29.97,10,9,4,15,7,20,0.11,4,Rain,61
2013-2-26,76,59,42,64,48,37,100,88,38,29.97,29.73,29.54,10,8,1,22,8,30,0.83,7,Rain,19
2013-2-27,62,53,44,46,39,35,89,63,42,29.89,29.82,29.75,10,10,10,20,11,24,0.00,0,,252
2013-2-28,58,50,42,40,32,27,76,54,35,29.92,29.85,29.80,10,10,10,23,12,33,0.00,1,,278